Main page
METAR-TAF:

METAR-TAF

Airports :

Bétera-Valencia

Valencia, Spain

latitude: 39-37-26N, longitude: 0-28-26W, elevation: 127 m

Current weather observation

The report was made 37 minutes ago, at 15:30 UTC
Wind 8 kt from the East/Southeast, varying between Northeast and Southeast
Temperature 15°C
Humidity 94%
Pressure 1012 hPa
Visibility 10 km or more
Scattered clouds at a height of 900 ft

METAR: LEBT 201530Z AUTO 11008KT 050V140 9999 SCT009 15/14 Q1012

Time: 18:07 (16:07 UTC)


TAF: missing

Weather observations and forecasts of more than 4000 airports (METAR and TAF reports).

The available stations are represented by yellow and red dots on the map.

Hover mouse over dot to see the name of the station.

Then click to see weather observations and forecasts.

To change the map : click on the green buttons with a black cross to zoom in, on the green button with a dash to zoom out, or on the green arrows for adjacent maps.


METAR-TAF: